DLH501 LGRP-LTFM
Flight info
| Callsign | DLH501 |
|---|---|
| Flight time | 1h 4m |
| Altitude | 28000 |
| Route | PIROX1Y PIROX N129 DUGLA/N0436F270 Z713 INBET INBET1C |
| Aircraft | A32N/M-V/N |
Departure
| Time | 2026-05-06 18:22 |
|---|---|
| Airport | Rhodes International Airport "Diagoras" (LGRP) |
Arrival
| Time | 2026-05-06 19:27 |
|---|---|
| Airport | İstanbul Airport (LTFM) |
| Time | Latitude | Longitude | Altitude | Speed | Heading |
|---|---|---|---|---|---|
| 2026-05-06 18:03 | 36.40377 | 28.09188 | 38 ft | 0 kts | 160° |
| 2026-05-06 18:06 | 36.40381 | 28.09186 | 38 ft | 0 kts | 160° |
| 2026-05-06 18:12 | 36.40385 | 28.09184 | 37 ft | 2 kts | 160° |
| 2026-05-06 18:12 | 36.40395 | 28.09180 | 37 ft | 2 kts | 159° |
| 2026-05-06 18:12 | 36.40408 | 28.09170 | 35 ft | 2 kts | 138° |
| 2026-05-06 18:13 | 36.40419 | 28.09156 | 34 ft | 2 kts | 123° |
| 2026-05-06 18:13 | 36.40425 | 28.09140 | 34 ft | 2 kts | 108° |
| 2026-05-06 18:13 | 36.40429 | 28.09121 | 34 ft | 2 kts | 92° |
| 2026-05-06 18:13 | 36.40428 | 28.09102 | 34 ft | 2 kts | 77° |
| 2026-05-06 18:14 | 36.40426 | 28.09093 | 34 ft | 1 kts | 68° |
| 2026-05-06 18:14 | 36.40424 | 28.09089 | 34 ft | 0 kts | 70° |
| 2026-05-06 18:16 | 36.40427 | 28.09099 | 34 ft | 6 kts | 72° |
| 2026-05-06 18:16 | 36.40447 | 28.09173 | 34 ft | 9 kts | 70° |
| 2026-05-06 18:16 | 36.40466 | 28.09239 | 33 ft | 11 kts | 69° |
| 2026-05-06 18:17 | 36.40503 | 28.09335 | 33 ft | 12 kts | 53° |
| 2026-05-06 18:17 | 36.40577 | 28.09415 | 31 ft | 14 kts | 51° |
| 2026-05-06 18:17 | 36.40625 | 28.09542 | 29 ft | 16 kts | 69° |
| 2026-05-06 18:17 | 36.40669 | 28.09689 | 27 ft | 18 kts | 70° |
| 2026-05-06 18:18 | 36.40713 | 28.09843 | 25 ft | 19 kts | 72° |
| 2026-05-06 18:18 | 36.40759 | 28.09999 | 24 ft | 19 kts | 68° |
| 2026-05-06 18:18 | 36.40804 | 28.10154 | 25 ft | 18 kts | 70° |
| 2026-05-06 18:18 | 36.40847 | 28.10303 | 27 ft | 18 kts | 69° |
| 2026-05-06 18:19 | 36.40897 | 28.10428 | 28 ft | 14 kts | 22° |
| 2026-05-06 18:19 | 36.40962 | 28.10419 | 28 ft | 0 kts | 331° |
| 2026-05-06 18:20 | 36.40968 | 28.10414 | 28 ft | 3 kts | 321° |
| 2026-05-06 18:20 | 36.40986 | 28.10386 | 27 ft | 5 kts | 298° |
| 2026-05-06 18:20 | 36.41003 | 28.10336 | 26 ft | 7 kts | 293° |
| 2026-05-06 18:21 | 36.41016 | 28.10262 | 25 ft | 9 kts | 251° |
| 2026-05-06 18:21 | 36.41009 | 28.10239 | 24 ft | 0 kts | 249° |
| 2026-05-06 18:21 | 36.40947 | 28.10027 | 23 ft | 66 kts | 250° |
| 2026-05-06 18:21 | 36.40693 | 28.09160 | 28 ft | 139 kts | 249° |
| 2026-05-06 18:22 | 36.40321 | 28.07857 | 341 ft | 170 kts | 252° |
| 2026-05-06 18:22 | 36.40064 | 28.06434 | 1101 ft | 172 kts | 270° |
| 2026-05-06 18:22 | 36.39997 | 28.05009 | 1974 ft | 169 kts | 270° |
| 2026-05-06 18:22 | 36.39945 | 28.03538 | 2632 ft | 177 kts | 269° |
| 2026-05-06 18:23 | 36.39788 | 28.01932 | 3247 ft | 191 kts | 265° |
| 2026-05-06 18:23 | 36.39587 | 28.00184 | 3798 ft | 209 kts | 265° |
| 2026-05-06 18:23 | 36.39391 | 27.98257 | 4323 ft | 231 kts | 266° |
| 2026-05-06 18:23 | 36.39202 | 27.96144 | 4853 ft | 253 kts | 266° |
| 2026-05-06 18:24 | 36.39011 | 27.93867 | 5479 ft | 271 kts | 267° |
| 2026-05-06 18:24 | 36.38820 | 27.91526 | 6288 ft | 279 kts | 266° |
| 2026-05-06 18:24 | 36.38625 | 27.89125 | 7197 ft | 282 kts | 266° |
| 2026-05-06 18:24 | 36.38148 | 27.86744 | 8091 ft | 290 kts | 243° |
| 2026-05-06 18:25 | 36.36808 | 27.84884 | 8969 ft | 297 kts | 215° |
| 2026-05-06 18:25 | 36.34970 | 27.83695 | 9847 ft | 301 kts | 207° |
| 2026-05-06 18:25 | 36.32978 | 27.82527 | 10625 ft | 308 kts | 207° |
| 2026-05-06 18:25 | 36.30974 | 27.81331 | 11099 ft | 326 kts | 208° |
| 2026-05-06 18:26 | 36.28860 | 27.80045 | 11512 ft | 344 kts | 208° |
| 2026-05-06 18:26 | 36.26671 | 27.78699 | 11874 ft | 362 kts | 209° |
| 2026-05-06 18:26 | 36.24344 | 27.77262 | 12191 ft | 380 kts | 209° |
| 2026-05-06 18:26 | 36.21922 | 27.75766 | 12496 ft | 398 kts | 209° |
| 2026-05-06 18:27 | 36.19376 | 27.74230 | 12897 ft | 411 kts | 205° |
| 2026-05-06 18:27 | 36.16542 | 27.73397 | 13486 ft | 422 kts | 184° |
| 2026-05-06 18:27 | 36.13612 | 27.73825 | 14170 ft | 427 kts | 164° |
| 2026-05-06 18:27 | 36.10908 | 27.75481 | 14796 ft | 431 kts | 143° |
| 2026-05-06 18:28 | 36.08842 | 27.78142 | 15394 ft | 433 kts | 122° |
| 2026-05-06 18:28 | 36.07625 | 27.81486 | 15969 ft | 431 kts | 102° |
| 2026-05-06 18:28 | 36.07161 | 27.85151 | 16573 ft | 432 kts | 94° |
| 2026-05-06 18:28 | 36.06810 | 27.88890 | 17115 ft | 437 kts | 94° |
| 2026-05-06 18:29 | 36.06427 | 27.92646 | 17662 ft | 441 kts | 94° |
| 2026-05-06 18:29 | 36.05999 | 27.96487 | 18191 ft | 446 kts | 94° |
| 2026-05-06 18:29 | 36.05940 | 28.00318 | 18672 ft | 443 kts | 78° |
| 2026-05-06 18:29 | 36.06877 | 28.03973 | 19201 ft | 436 kts | 59° |
| 2026-05-06 18:30 | 36.08665 | 28.07029 | 19715 ft | 429 kts | 40° |
| 2026-05-06 18:30 | 36.11079 | 28.09235 | 20235 ft | 423 kts | 25° |
| 2026-05-06 18:30 | 36.13685 | 28.10940 | 20756 ft | 425 kts | 24° |
| 2026-05-06 18:30 | 36.16341 | 28.12648 | 21233 ft | 429 kts | 24° |
| 2026-05-06 18:31 | 36.19017 | 28.14396 | 21735 ft | 432 kts | 24° |
| 2026-05-06 18:31 | 36.21716 | 28.16184 | 22272 ft | 433 kts | 24° |
| 2026-05-06 18:31 | 36.24456 | 28.17677 | 22915 ft | 425 kts | 12° |
| 2026-05-06 18:31 | 36.27393 | 28.18118 | 23622 ft | 415 kts | 355° |
| 2026-05-06 18:32 | 36.30245 | 28.17507 | 24216 ft | 410 kts | 340° |
| 2026-05-06 18:32 | 36.32845 | 28.15993 | 24701 ft | 411 kts | 330° |
| 2026-05-06 18:32 | 36.35400 | 28.14191 | 25256 ft | 411 kts | 329° |
| 2026-05-06 18:32 | 36.37973 | 28.12367 | 25871 ft | 410 kts | 329° |
| 2026-05-06 18:33 | 36.40506 | 28.10574 | 26507 ft | 408 kts | 329° |
| 2026-05-06 18:33 | 36.43029 | 28.08791 | 27034 ft | 408 kts | 329° |
| 2026-05-06 18:33 | 36.45565 | 28.07074 | 27449 ft | 411 kts | 332° |
| 2026-05-06 18:33 | 36.48272 | 28.05603 | 27873 ft | 413 kts | 337° |
| 2026-05-06 18:34 | 36.51105 | 28.04428 | 28036 ft | 416 kts | 342° |
| 2026-05-06 18:34 | 36.53991 | 28.03558 | 28043 ft | 415 kts | 345° |
| 2026-05-06 18:34 | 36.59753 | 28.02029 | 28043 ft | 415 kts | 345° |
| 2026-05-06 18:35 | 36.65577 | 28.00501 | 28046 ft | 415 kts | 345° |
| 2026-05-06 18:35 | 36.71342 | 27.98981 | 28057 ft | 414 kts | 345° |
| 2026-05-06 18:36 | 36.77047 | 27.97475 | 28061 ft | 414 kts | 345° |
| 2026-05-06 18:36 | 36.82782 | 27.95958 | 28060 ft | 414 kts | 345° |
| 2026-05-06 18:37 | 36.88481 | 27.94447 | 28058 ft | 414 kts | 345° |
| 2026-05-06 18:37 | 36.94389 | 27.92877 | 28059 ft | 414 kts | 346° |
| 2026-05-06 18:38 | 37.00133 | 27.91350 | 28064 ft | 414 kts | 345° |
| 2026-05-06 18:38 | 37.05804 | 27.89840 | 28066 ft | 414 kts | 345° |
| 2026-05-06 18:39 | 37.11461 | 27.88330 | 28072 ft | 414 kts | 345° |
| 2026-05-06 18:40 | 37.20014 | 27.86040 | 28072 ft | 413 kts | 345° |
| 2026-05-06 18:40 | 37.25791 | 27.84493 | 28076 ft | 413 kts | 346° |
| 2026-05-06 18:41 | 37.31570 | 27.82942 | 28077 ft | 413 kts | 346° |
| 2026-05-06 18:41 | 37.37332 | 27.81395 | 28079 ft | 413 kts | 345° |
| 2026-05-06 18:42 | 37.43156 | 27.79827 | 28083 ft | 412 kts | 346° |
| 2026-05-06 18:42 | 37.48961 | 27.78263 | 28087 ft | 412 kts | 346° |
| 2026-05-06 18:43 | 37.54750 | 27.76700 | 28082 ft | 412 kts | 345° |
| 2026-05-06 18:43 | 37.60575 | 27.75123 | 28078 ft | 412 kts | 345° |
| 2026-05-06 18:44 | 37.66327 | 27.73566 | 28072 ft | 412 kts | 345° |
| 2026-05-06 18:44 | 37.72026 | 27.72020 | 28069 ft | 412 kts | 346° |
| 2026-05-06 18:45 | 37.77747 | 27.70465 | 28063 ft | 412 kts | 346° |
| 2026-05-06 18:45 | 37.83414 | 27.68923 | 28068 ft | 412 kts | 346° |
| 2026-05-06 18:46 | 37.89145 | 27.67361 | 28069 ft | 411 kts | 346° |
| 2026-05-06 18:46 | 37.94828 | 27.65809 | 28066 ft | 411 kts | 346° |
| 2026-05-06 18:47 | 38.00483 | 27.64262 | 28074 ft | 411 kts | 346° |
| 2026-05-06 18:47 | 38.06117 | 27.62719 | 28075 ft | 411 kts | 346° |
| 2026-05-06 18:48 | 38.11783 | 27.61166 | 28080 ft | 411 kts | 345° |
| 2026-05-06 18:48 | 38.17430 | 27.59612 | 28081 ft | 411 kts | 346° |
| 2026-05-06 18:49 | 38.23193 | 27.58027 | 28082 ft | 411 kts | 346° |
| 2026-05-06 18:49 | 38.28993 | 27.56429 | 28083 ft | 411 kts | 346° |
| 2026-05-06 18:50 | 38.34811 | 27.54822 | 28085 ft | 410 kts | 346° |
| 2026-05-06 18:50 | 38.40654 | 27.53320 | 28083 ft | 411 kts | 350° |
| 2026-05-06 18:51 | 38.46371 | 27.52551 | 28086 ft | 411 kts | 352° |
| 2026-05-06 18:51 | 38.52068 | 27.51813 | 28089 ft | 411 kts | 351° |
| 2026-05-06 18:52 | 38.57784 | 27.51031 | 28085 ft | 411 kts | 351° |
| 2026-05-06 18:52 | 38.63465 | 27.50230 | 28079 ft | 411 kts | 351° |
| 2026-05-06 18:53 | 38.69191 | 27.49416 | 28073 ft | 411 kts | 351° |
| 2026-05-06 18:53 | 38.74971 | 27.48590 | 28072 ft | 411 kts | 351° |
| 2026-05-06 18:54 | 38.80789 | 27.47756 | 28068 ft | 411 kts | 351° |
| 2026-05-06 18:54 | 38.86565 | 27.46925 | 28072 ft | 410 kts | 351° |
| 2026-05-06 18:55 | 38.92285 | 27.46102 | 28075 ft | 410 kts | 351° |
| 2026-05-06 18:55 | 38.98042 | 27.45269 | 28077 ft | 411 kts | 351° |
| 2026-05-06 18:56 | 39.03858 | 27.44423 | 28079 ft | 424 kts | 351° |
| 2026-05-06 18:56 | 39.09855 | 27.43554 | 28077 ft | 427 kts | 352° |
| 2026-05-06 18:57 | 39.15821 | 27.42691 | 28074 ft | 428 kts | 351° |
| 2026-05-06 18:57 | 39.21862 | 27.41814 | 28072 ft | 428 kts | 352° |
| 2026-05-06 18:58 | 39.27861 | 27.40939 | 28070 ft | 428 kts | 352° |
| 2026-05-06 18:58 | 39.33866 | 27.40064 | 28071 ft | 428 kts | 351° |
| 2026-05-06 18:59 | 39.39856 | 27.39189 | 28075 ft | 427 kts | 352° |
| 2026-05-06 18:59 | 39.45807 | 27.38317 | 28079 ft | 428 kts | 352° |
| 2026-05-06 19:00 | 39.51833 | 27.37434 | 28078 ft | 428 kts | 351° |
| 2026-05-06 19:00 | 39.57797 | 27.36558 | 28079 ft | 429 kts | 351° |
| 2026-05-06 19:01 | 39.63719 | 27.35685 | 28078 ft | 428 kts | 352° |
| 2026-05-06 19:01 | 39.69651 | 27.34811 | 28075 ft | 428 kts | 351° |
| 2026-05-06 19:02 | 39.75600 | 27.33932 | 28072 ft | 429 kts | 351° |
| 2026-05-06 19:02 | 39.81546 | 27.33051 | 28072 ft | 429 kts | 351° |
| 2026-05-06 19:03 | 39.87481 | 27.32171 | 28070 ft | 429 kts | 351° |
| 2026-05-06 19:03 | 39.93393 | 27.31293 | 28068 ft | 428 kts | 351° |
| 2026-05-06 19:04 | 39.99335 | 27.30408 | 27918 ft | 429 kts | 351° |
| 2026-05-06 19:04 | 40.02287 | 27.29966 | 27528 ft | 430 kts | 351° |
| 2026-05-06 19:04 | 40.05276 | 27.29520 | 27130 ft | 431 kts | 351° |
| 2026-05-06 19:04 | 40.08279 | 27.29070 | 27069 ft | 430 kts | 351° |
| 2026-05-06 19:05 | 40.11248 | 27.28628 | 26789 ft | 424 kts | 351° |
| 2026-05-06 19:05 | 40.14175 | 27.28190 | 26256 ft | 416 kts | 351° |
| 2026-05-06 19:05 | 40.17074 | 27.27829 | 26066 ft | 413 kts | 354° |
| 2026-05-06 19:05 | 40.20044 | 27.27715 | 26063 ft | 415 kts | 358° |
| 2026-05-06 19:06 | 40.22963 | 27.27833 | 26062 ft | 416 kts | 360° |
| 2026-05-06 19:06 | 40.25938 | 27.28023 | 26063 ft | 415 kts | 0° |
| 2026-05-06 19:06 | 40.28933 | 27.28226 | 26061 ft | 415 kts | 0° |
| 2026-05-06 19:06 | 40.31930 | 27.28590 | 26045 ft | 419 kts | 9° |
| 2026-05-06 19:07 | 40.34726 | 27.30139 | 26051 ft | 431 kts | 27° |
| 2026-05-06 19:07 | 40.37128 | 27.32838 | 26061 ft | 443 kts | 43° |
| 2026-05-06 19:07 | 40.38933 | 27.36351 | 26072 ft | 451 kts | 54° |
| 2026-05-06 19:07 | 40.40539 | 27.40004 | 26065 ft | 449 kts | 54° |
| 2026-05-06 19:08 | 40.42155 | 27.43708 | 26064 ft | 449 kts | 54° |
| 2026-05-06 19:08 | 40.43694 | 27.47274 | 26065 ft | 449 kts | 54° |
| 2026-05-06 19:08 | 40.45221 | 27.50814 | 26065 ft | 449 kts | 54° |
| 2026-05-06 19:08 | 40.46746 | 27.54348 | 26065 ft | 448 kts | 54° |
| 2026-05-06 19:09 | 40.48290 | 27.57931 | 26036 ft | 446 kts | 54° |
| 2026-05-06 19:09 | 40.49807 | 27.61454 | 25594 ft | 441 kts | 54° |
| 2026-05-06 19:09 | 40.51310 | 27.64938 | 24596 ft | 445 kts | 54° |
| 2026-05-06 19:09 | 40.52870 | 27.68549 | 23435 ft | 451 kts | 55° |
| 2026-05-06 19:10 | 40.54406 | 27.72112 | 22377 ft | 454 kts | 56° |
| 2026-05-06 19:10 | 40.55992 | 27.75801 | 21324 ft | 455 kts | 56° |
| 2026-05-06 19:10 | 40.57553 | 27.79439 | 20248 ft | 457 kts | 56° |
| 2026-05-06 19:10 | 40.59102 | 27.83060 | 19439 ft | 445 kts | 56° |
| 2026-05-06 19:11 | 40.60601 | 27.86579 | 18424 ft | 429 kts | 56° |
| 2026-05-06 19:11 | 40.62045 | 27.89965 | 17028 ft | 423 kts | 56° |
| 2026-05-06 19:11 | 40.63550 | 27.93480 | 15546 ft | 416 kts | 57° |
| 2026-05-06 19:11 | 40.64993 | 27.96854 | 14143 ft | 407 kts | 57° |
| 2026-05-06 19:12 | 40.66407 | 28.00170 | 12860 ft | 396 kts | 57° |
| 2026-05-06 19:12 | 40.67756 | 28.03351 | 12022 ft | 375 kts | 57° |
| 2026-05-06 19:12 | 40.69054 | 28.06416 | 11418 ft | 350 kts | 57° |
| 2026-05-06 19:12 | 40.70222 | 28.09177 | 11132 ft | 323 kts | 57° |
| 2026-05-06 19:13 | 40.71326 | 28.11788 | 10898 ft | 297 kts | 57° |
| 2026-05-06 19:13 | 40.72336 | 28.14174 | 10698 ft | 277 kts | 56° |
| 2026-05-06 19:13 | 40.73279 | 28.16393 | 10531 ft | 268 kts | 56° |
| 2026-05-06 19:13 | 40.74181 | 28.18517 | 10379 ft | 262 kts | 56° |
| 2026-05-06 19:14 | 40.75087 | 28.20643 | 10240 ft | 261 kts | 56° |
| 2026-05-06 19:14 | 40.75991 | 28.22772 | 10099 ft | 267 kts | 56° |
| 2026-05-06 19:14 | 40.76938 | 28.24997 | 9754 ft | 276 kts | 56° |
| 2026-05-06 19:14 | 40.77890 | 28.27249 | 9404 ft | 275 kts | 56° |
| 2026-05-06 19:15 | 40.78836 | 28.29493 | 9043 ft | 274 kts | 56° |
| 2026-05-06 19:15 | 40.79776 | 28.31718 | 8685 ft | 274 kts | 57° |
| 2026-05-06 19:15 | 40.80713 | 28.33944 | 8328 ft | 273 kts | 57° |
| 2026-05-06 19:15 | 40.81649 | 28.36167 | 7977 ft | 273 kts | 57° |
| 2026-05-06 19:16 | 40.82578 | 28.38378 | 7624 ft | 272 kts | 57° |
| 2026-05-06 19:16 | 40.83506 | 28.40590 | 7263 ft | 271 kts | 57° |
| 2026-05-06 19:16 | 40.84451 | 28.42835 | 6895 ft | 270 kts | 57° |
| 2026-05-06 19:16 | 40.85371 | 28.45049 | 6538 ft | 269 kts | 58° |
| 2026-05-06 19:17 | 40.86145 | 28.47364 | 6177 ft | 269 kts | 65° |
| 2026-05-06 19:17 | 40.86786 | 28.49756 | 5810 ft | 267 kts | 67° |
| 2026-05-06 19:17 | 40.87393 | 28.52105 | 5443 ft | 266 kts | 67° |
| 2026-05-06 19:17 | 40.87996 | 28.54444 | 5097 ft | 264 kts | 68° |
| 2026-05-06 19:18 | 40.88585 | 28.56732 | 4965 ft | 252 kts | 68° |
| 2026-05-06 19:18 | 40.89128 | 28.58848 | 4949 ft | 238 kts | 67° |
| 2026-05-06 19:18 | 40.89662 | 28.60917 | 4954 ft | 237 kts | 67° |
| 2026-05-06 19:18 | 40.90207 | 28.63015 | 4965 ft | 237 kts | 67° |
| 2026-05-06 19:19 | 40.90749 | 28.65109 | 4962 ft | 237 kts | 67° |
| 2026-05-06 19:19 | 40.91289 | 28.67193 | 4959 ft | 237 kts | 67° |
| 2026-05-06 19:19 | 40.92061 | 28.69090 | 4945 ft | 231 kts | 43° |
| 2026-05-06 19:19 | 40.93373 | 28.70351 | 4974 ft | 226 kts | 26° |
| 2026-05-06 19:20 | 40.94754 | 28.71337 | 4962 ft | 216 kts | 25° |
| 2026-05-06 19:20 | 40.96125 | 28.72209 | 4965 ft | 214 kts | 19° |
| 2026-05-06 19:20 | 40.97542 | 28.72865 | 4968 ft | 213 kts | 12° |
| 2026-05-06 19:20 | 40.99009 | 28.73201 | 4968 ft | 212 kts | 3° |
| 2026-05-06 19:21 | 41.00523 | 28.73281 | 4970 ft | 211 kts | 359° |
| 2026-05-06 19:21 | 41.02009 | 28.73268 | 4942 ft | 212 kts | 358° |
| 2026-05-06 19:21 | 41.03550 | 28.73234 | 4718 ft | 212 kts | 357° |
| 2026-05-06 19:21 | 41.05049 | 28.73199 | 4429 ft | 211 kts | 358° |
| 2026-05-06 19:22 | 41.06559 | 28.73165 | 4138 ft | 210 kts | 358° |
| 2026-05-06 19:22 | 41.08057 | 28.73134 | 3847 ft | 207 kts | 358° |
| 2026-05-06 19:22 | 41.09493 | 28.73106 | 3556 ft | 195 kts | 358° |
| 2026-05-06 19:22 | 41.10819 | 28.73081 | 3388 ft | 182 kts | 357° |
| 2026-05-06 19:23 | 41.12096 | 28.73055 | 3125 ft | 181 kts | 358° |
| 2026-05-06 19:23 | 41.13364 | 28.73029 | 2854 ft | 175 kts | 358° |
| 2026-05-06 19:23 | 41.14598 | 28.73004 | 2598 ft | 171 kts | 359° |
| 2026-05-06 19:23 | 41.15808 | 28.72979 | 2392 ft | 171 kts | 359° |
| 2026-05-06 19:24 | 41.17027 | 28.72955 | 2148 ft | 171 kts | 360° |
| 2026-05-06 19:24 | 41.18241 | 28.72931 | 1913 ft | 172 kts | 0° |
| 2026-05-06 19:24 | 41.19456 | 28.72907 | 1681 ft | 172 kts | 1° |
| 2026-05-06 19:24 | 41.20667 | 28.72884 | 1455 ft | 171 kts | 1° |
| 2026-05-06 19:25 | 41.21825 | 28.72860 | 1223 ft | 161 kts | 1° |
| 2026-05-06 19:25 | 41.22915 | 28.72837 | 1013 ft | 148 kts | 1° |
| 2026-05-06 19:25 | 41.23905 | 28.72817 | 806 ft | 134 kts | 2° |
| 2026-05-06 19:25 | 41.24830 | 28.72806 | 594 ft | 132 kts | 2° |
| 2026-05-06 19:26 | 41.25759 | 28.72790 | 454 ft | 134 kts | 2° |
| 2026-05-06 19:26 | 41.26696 | 28.72770 | 343 ft | 135 kts | 2° |
| 2026-05-06 19:26 | 41.27512 | 28.72771 | 334 ft | 90 kts | 358° |
| 2026-05-06 19:26 | 41.27994 | 28.72742 | 334 ft | 50 kts | 0° |
| 2026-05-06 19:27 | 41.28314 | 28.72788 | 334 ft | 41 kts | 21° |
| 2026-05-06 19:27 | 41.28432 | 28.72868 | 334 ft | 0 kts | 26° |
| 2026-05-06 19:29 | 41.28435 | 28.72871 | 334 ft | 2 kts | 30° |
| 2026-05-06 19:29 | 41.28450 | 28.72902 | 334 ft | 5 kts | 85° |
| 2026-05-06 19:29 | 41.28418 | 28.72952 | 334 ft | 9 kts | 164° |
| 2026-05-06 19:30 | 41.28344 | 28.72962 | 334 ft | 11 kts | 176° |
| 2026-05-06 19:30 | 41.28259 | 28.72969 | 334 ft | 12 kts | 181° |
| 2026-05-06 19:30 | 41.28169 | 28.72965 | 334 ft | 13 kts | 181° |
| 2026-05-06 19:30 | 41.28072 | 28.72965 | 334 ft | 14 kts | 179° |
| 2026-05-06 19:31 | 41.27982 | 28.72969 | 334 ft | 10 kts | 176° |
| 2026-05-06 19:31 | 41.27911 | 28.72969 | 334 ft | 10 kts | 183° |
| 2026-05-06 19:31 | 41.27734 | 28.72973 | 334 ft | 14 kts | 179° |
| 2026-05-06 19:32 | 41.27620 | 28.72975 | 334 ft | 16 kts | 179° |
| 2026-05-06 19:32 | 41.27494 | 28.72977 | 334 ft | 18 kts | 179° |
| 2026-05-06 19:32 | 41.27357 | 28.72980 | 334 ft | 19 kts | 179° |
| 2026-05-06 19:32 | 41.27223 | 28.72983 | 334 ft | 19 kts | 181° |
| 2026-05-06 19:33 | 41.27081 | 28.72984 | 334 ft | 20 kts | 179° |
| 2026-05-06 19:33 | 41.26956 | 28.73007 | 334 ft | 15 kts | 134° |
| 2026-05-06 19:33 | 41.26944 | 28.73134 | 334 ft | 13 kts | 88° |
| 2026-05-06 19:33 | 41.26946 | 28.73263 | 334 ft | 14 kts | 89° |
| 2026-05-06 19:34 | 41.26947 | 28.73399 | 334 ft | 14 kts | 89° |
| 2026-05-06 19:34 | 41.26949 | 28.73537 | 334 ft | 15 kts | 91° |
| 2026-05-06 19:34 | 41.26951 | 28.73681 | 334 ft | 15 kts | 88° |
| 2026-05-06 19:34 | 41.26951 | 28.73816 | 334 ft | 14 kts | 100° |
| 2026-05-06 19:35 | 41.26895 | 28.73870 | 334 ft | 7 kts | 178° |
| 2026-05-06 19:35 | 41.26840 | 28.73871 | 334 ft | 8 kts | 178° |
| 2026-05-06 19:35 | 41.26783 | 28.73849 | 334 ft | 9 kts | 234° |
| 2026-05-06 19:35 | 41.26781 | 28.73771 | 334 ft | 7 kts | 272° |
| 2026-05-06 19:36 | 41.26781 | 28.73746 | 334 ft | 0 kts | 270° |